createdAt,value
2024-03-06T00:00:23.945Z,22.55
2024-03-06T00:02:51.040Z,23.58
2024-03-06T00:05:17.990Z,23.15
2024-03-06T00:07:44.723Z,21.80
2024-03-06T00:10:11.538Z,23.65
2024-03-06T00:12:38.229Z,24.10
2024-03-06T00:15:05.317Z,23.83
2024-03-06T00:17:32.416Z,22.35
2024-03-06T00:19:59.250Z,23.98
2024-03-06T00:22:26.178Z,23.35
2024-03-06T00:24:53.172Z,23.88
2024-03-06T00:27:20.031Z,23.90
2024-03-06T00:29:46.953Z,24.35
2024-03-06T00:32:13.792Z,23.30
2024-03-06T00:34:40.734Z,22.38
2024-03-06T00:37:08.213Z,21.98
2024-03-06T00:39:34.904Z,22.25
2024-03-06T00:42:01.711Z,23.63
2024-03-06T00:44:28.452Z,22.88
2024-03-06T00:46:55.172Z,21.67
2024-03-06T00:49:21.987Z,22.80
2024-03-06T00:51:49.784Z,23.05
2024-03-06T00:54:17.710Z,24.42
2024-03-06T00:56:44.682Z,24.02
2024-03-06T00:59:11.928Z,23.13
2024-03-06T01:01:38.980Z,23.90
2024-03-06T01:04:05.882Z,24.48
2024-03-06T01:06:32.649Z,26.27
2024-03-06T01:08:59.711Z,26.23
2024-03-06T01:11:27.843Z,24.42
2024-03-06T01:13:55.088Z,24.83
2024-03-06T01:16:21.968Z,23.73
2024-03-06T01:18:49.076Z,24.48
2024-03-06T01:21:16.002Z,25.45
2024-03-06T01:23:42.736Z,25.13
2024-03-06T01:26:09.575Z,25.10
2024-03-06T01:28:38.150Z,25.67
2024-03-06T01:31:05.157Z,25.52
2024-03-06T01:33:32.016Z,25.33
2024-03-06T01:35:58.858Z,26.52
2024-03-06T01:38:25.622Z,26.75
2024-03-06T01:40:52.370Z,25.67
2024-03-06T01:43:26.891Z,24.95
2024-03-06T01:45:54.557Z,26.38
2024-03-06T01:48:23.188Z,27.08
2024-03-06T01:50:50.192Z,25.60
2024-03-06T01:53:17.896Z,24.67
2024-03-06T01:55:44.895Z,25.88
2024-03-06T01:58:11.745Z,26.30
2024-03-06T02:00:38.824Z,26.70
2024-03-06T02:03:05.825Z,26.48
2024-03-06T02:05:33.488Z,26.83
2024-03-06T02:08:00.971Z,25.88
2024-03-06T02:10:31.279Z,28.70
2024-03-06T02:12:59.173Z,27.95
2024-03-06T02:15:25.997Z,27.42
2024-03-06T02:17:54.447Z,25.77
2024-03-06T02:20:25.925Z,29.00
2024-03-06T02:22:53.114Z,26.65
2024-03-06T02:25:20.846Z,27.13
2024-03-06T02:27:49.701Z,26.83
2024-03-06T02:30:20.915Z,27.80
2024-03-06T02:32:47.755Z,27.50
2024-03-06T02:35:15.310Z,27.45
2024-03-06T02:37:45.153Z,26.92
2024-03-06T02:40:12.958Z,27.65
2024-03-06T02:42:40.123Z,27.75
2024-03-06T02:45:08.840Z,28.08
2024-03-06T02:47:35.817Z,26.23
2024-03-06T02:50:02.847Z,27.38
2024-03-06T02:52:29.696Z,25.77
2024-03-06T02:54:56.868Z,28.30
2024-03-06T02:57:23.584Z,27.45
2024-03-06T02:59:51.286Z,27.40
2024-03-06T03:02:18.158Z,28.00
2024-03-06T03:04:45.340Z,26.42
2024-03-06T03:07:13.452Z,27.73
2024-03-06T03:09:40.312Z,25.40
2024-03-06T03:12:07.299Z,26.92
2024-03-06T03:14:34.371Z,27.23
2024-03-06T03:17:02.173Z,26.15
2024-03-06T03:19:28.997Z,27.80
2024-03-06T03:21:55.894Z,26.25
2024-03-06T03:24:23.017Z,26.55
2024-03-06T03:26:49.823Z,25.98
2024-03-06T03:29:16.796Z,26.15
2024-03-06T03:31:43.908Z,27.02
2024-03-06T03:34:11.635Z,24.85
2024-03-06T03:36:44.708Z,25.83
2024-03-06T03:39:16.961Z,25.80
2024-03-06T03:41:45.039Z,26.00
2024-03-06T03:44:11.814Z,26.65
2024-03-06T03:46:39.203Z,27.38
2024-03-06T03:49:05.983Z,27.92
2024-03-06T03:51:32.780Z,27.77
2024-03-06T03:53:59.460Z,26.95
2024-03-06T03:56:26.289Z,28.83
2024-03-06T03:58:53.033Z,28.35
2024-03-06T04:01:19.844Z,28.08
2024-03-06T04:03:46.625Z,28.27
2024-03-06T04:06:13.381Z,29.15
2024-03-06T04:08:40.037Z,30.15
2024-03-06T04:11:06.811Z,29.33
2024-03-06T04:13:37.027Z,26.95
2024-03-06T04:16:04.236Z,27.30
2024-03-06T04:18:34.585Z,27.23
2024-03-06T04:21:06.341Z,27.42
2024-03-06T04:23:34.025Z,26.33
2024-03-06T04:26:01.621Z,27.48
2024-03-06T04:28:28.640Z,27.98
2024-03-06T04:30:55.528Z,27.60
2024-03-06T04:33:22.431Z,27.35
2024-03-06T04:35:49.290Z,27.08
2024-03-06T04:38:16.139Z,27.48
2024-03-06T04:40:43.175Z,27.63
2024-03-06T04:43:10.091Z,28.80
2024-03-06T04:45:36.817Z,29.95
2024-03-06T04:48:03.788Z,28.88
2024-03-06T04:50:30.714Z,27.85
2024-03-06T04:52:57.528Z,27.10
2024-03-06T04:55:26.281Z,28.60
2024-03-06T04:57:54.521Z,26.55
2024-03-06T05:00:21.300Z,26.27
2024-03-06T06:00:23.186Z,24.75
2024-03-06T06:02:50.099Z,24.75
2024-03-06T06:05:23.184Z,22.55
2024-03-06T06:07:54.169Z,24.80
2024-03-06T06:10:22.421Z,27.10
2024-03-06T06:12:50.451Z,25.85
2024-03-06T06:15:17.601Z,25.70
2024-03-06T06:17:46.355Z,25.75
2024-03-06T06:20:17.085Z,27.42
2024-03-06T06:22:45.479Z,26.13
2024-03-06T06:25:12.442Z,26.75
2024-03-06T06:27:40.188Z,26.77
2024-03-06T06:30:11.500Z,24.77
2024-03-06T06:32:39.460Z,24.33
2024-03-06T06:35:06.508Z,24.10
2024-03-06T06:37:33.483Z,24.88
2024-03-06T06:40:00.667Z,24.35
2024-03-06T06:42:27.390Z,26.33
2024-03-06T06:44:54.555Z,26.48
2024-03-06T06:47:21.435Z,26.27
2024-03-06T06:49:48.309Z,25.80
2024-03-06T06:52:15.705Z,25.70
2024-03-06T06:54:42.757Z,26.63
2024-03-06T06:57:09.747Z,25.45
2024-03-06T06:59:36.587Z,25.85
2024-03-06T07:02:04.123Z,24.88
2024-03-06T07:04:30.972Z,24.33
2024-03-06T07:06:57.698Z,23.15
2024-03-06T07:09:24.666Z,22.60
2024-03-06T07:11:52.046Z,23.85
2024-03-06T07:14:18.990Z,23.20
2024-03-06T07:16:46.709Z,23.80
2024-03-06T07:19:13.865Z,23.75
2024-03-06T07:21:40.683Z,23.15
2024-03-06T07:24:07.460Z,23.65
2024-03-06T07:26:35.448Z,22.38
2024-03-06T07:29:03.156Z,23.50
2024-03-06T07:31:30.186Z,24.35
2024-03-06T07:33:56.858Z,22.83
2024-03-06T07:36:23.680Z,22.25
2024-03-06T07:38:50.533Z,22.10
2024-03-06T07:41:17.614Z,22.55
2024-03-06T07:43:44.671Z,22.35
2024-03-06T07:46:12.403Z,21.65
2024-03-06T07:48:39.863Z,22.00
2024-03-06T07:51:06.963Z,21.58
2024-03-06T07:53:33.780Z,22.15
2024-03-06T07:56:00.722Z,21.35
2024-03-06T07:58:27.576Z,20.55
2024-03-06T08:00:56.973Z,19.60
2024-03-06T08:03:25.873Z,20.85
2024-03-06T08:05:56.129Z,20.30
2024-03-06T08:08:23.462Z,20.20
2024-03-06T08:10:50.628Z,20.10
2024-03-06T08:13:17.579Z,19.10
2024-03-06T08:15:45.525Z,18.63
2024-03-06T08:18:14.255Z,16.88
2024-03-06T08:20:41.592Z,17.63
2024-03-06T08:23:09.456Z,16.58
2024-03-06T08:25:36.327Z,14.32
2024-03-06T08:28:07.260Z,14.27
2024-03-06T08:30:34.300Z,13.25
2024-03-06T08:33:01.807Z,13.32
2024-03-06T08:35:29.261Z,13.45
2024-03-06T08:37:56.070Z,12.38
2024-03-06T08:40:24.453Z,12.88
2024-03-06T08:42:51.612Z,12.85
2024-03-06T08:45:18.735Z,13.57
2024-03-06T08:47:46.568Z,14.75
2024-03-06T08:50:14.539Z,14.73
2024-03-06T08:52:42.806Z,13.48
2024-03-06T08:55:10.141Z,12.17
2024-03-06T08:57:37.162Z,11.95
2024-03-06T09:00:05.251Z,11.15
2024-03-06T09:02:32.098Z,11.20
2024-03-06T09:04:59.070Z,11.50
2024-03-06T09:07:26.993Z,11.00
2024-03-06T09:09:53.720Z,10.05
2024-03-06T09:12:20.514Z,9.75
2024-03-06T09:14:47.378Z,11.00
2024-03-06T09:17:15.884Z,10.75
2024-03-06T09:19:55.093Z,8.52
2024-03-06T09:22:30.071Z,7.30
2024-03-06T09:24:57.673Z,8.60
2024-03-06T09:27:24.563Z,7.35
2024-03-06T09:29:51.419Z,7.28
2024-03-06T09:32:20.514Z,7.45
2024-03-06T09:37:14.077Z,8.07
2024-03-06T09:39:43.253Z,8.07
2024-03-06T09:44:36.618Z,6.95
2024-03-06T09:47:06.753Z,6.55
2024-03-06T09:49:35.066Z,6.93
2024-03-06T09:52:04.185Z,6.20
2024-03-06T09:54:31.798Z,6.68
2024-03-06T09:57:00.153Z,6.70
2024-03-06T09:59:28.462Z,6.83
2024-03-06T10:01:57.390Z,6.97
2024-03-06T10:04:28.604Z,6.68
2024-03-06T10:07:00.205Z,7.40
2024-03-06T10:09:28.106Z,7.13
2024-03-06T10:11:57.418Z,8.30
2024-03-06T10:14:24.829Z,7.30
2024-03-06T10:16:57.380Z,8.00
2024-03-06T10:19:28.850Z,7.50
2024-03-06T10:21:56.477Z,7.80
2024-03-06T10:24:27.482Z,8.00
2024-03-06T10:26:59.189Z,8.57
2024-03-06T10:29:28.415Z,7.53
2024-03-06T10:31:58.014Z,7.65
2024-03-06T10:34:30.774Z,7.00
2024-03-06T10:37:07.232Z,7.68
2024-03-06T10:39:41.731Z,7.68
2024-03-06T10:42:09.709Z,6.88
2024-03-06T10:44:38.246Z,8.20
2024-03-06T10:47:07.222Z,7.30
2024-03-06T10:49:35.742Z,7.57
2024-03-06T10:52:08.021Z,6.53
2024-03-06T10:54:43.080Z,6.43
2024-03-06T10:57:11.641Z,7.25
2024-03-06T10:59:38.627Z,8.73
2024-03-06T11:02:05.437Z,6.65
2024-03-06T11:04:35.919Z,6.88
2024-03-06T11:07:04.370Z,7.80
2024-03-06T11:09:41.595Z,7.22
2024-03-06T11:12:08.915Z,7.45
2024-03-06T11:14:40.492Z,7.47
2024-03-06T11:17:10.715Z,7.50
2024-03-06T11:20:07.579Z,6.85
2024-03-06T11:22:59.854Z,6.80
2024-03-06T11:25:52.100Z,6.60
2024-03-06T11:28:23.097Z,6.45
2024-03-06T11:31:03.836Z,6.53
2024-03-06T11:33:41.137Z,7.32
2024-03-06T11:36:24.034Z,7.47
2024-03-06T11:39:21.196Z,7.13
2024-03-06T11:41:49.376Z,8.95
2024-03-06T11:44:22.397Z,7.40
2024-03-06T11:46:50.478Z,8.18
2024-03-06T11:49:25.665Z,8.35
2024-03-06T11:51:53.266Z,8.00
2024-03-06T11:54:24.359Z,8.52
2024-03-06T11:56:52.328Z,8.15
2024-03-06T11:59:22.328Z,7.97
2024-03-06T12:01:49.074Z,7.60
2024-03-06T12:04:15.813Z,7.47
2024-03-06T12:06:42.555Z,8.60
2024-03-06T12:09:12.300Z,8.77
2024-03-06T12:11:39.849Z,7.20
2024-03-06T12:14:06.831Z,8.30
2024-03-06T12:16:33.735Z,7.70
2024-03-06T12:19:00.932Z,7.53
2024-03-06T12:21:35.262Z,7.70
2024-03-06T12:24:05.500Z,7.40
2024-03-06T12:26:32.424Z,7.75
2024-03-06T12:29:09.438Z,8.25
2024-03-06T12:31:38.068Z,7.80
2024-03-06T12:34:05.772Z,7.53
2024-03-06T12:36:33.969Z,7.28
2024-03-06T12:39:01.572Z,6.60
2024-03-06T12:41:29.198Z,6.10
2024-03-06T12:43:57.220Z,6.13
2024-03-06T12:46:25.093Z,5.83
2024-03-06T12:48:52.376Z,6.40
2024-03-06T12:51:19.322Z,7.75
2024-03-06T12:53:46.414Z,7.18
2024-03-06T12:56:13.310Z,5.47
2024-03-06T12:58:40.106Z,6.20
2024-03-06T13:01:06.978Z,6.20
2024-03-06T13:03:33.807Z,6.57
2024-03-06T13:06:00.876Z,6.18
2024-03-06T13:08:27.866Z,6.13
2024-03-06T13:10:54.832Z,6.07
2024-03-06T13:13:21.940Z,5.70
2024-03-06T13:15:50.025Z,5.00
2024-03-06T13:18:17.754Z,5.57
2024-03-06T13:20:45.216Z,7.38
2024-03-06T13:23:12.924Z,9.18
2024-03-06T13:25:39.656Z,9.13
2024-03-06T13:28:06.577Z,9.18
2024-03-06T13:30:33.445Z,8.85
2024-03-06T13:33:00.364Z,9.77
2024-03-06T13:35:27.603Z,9.43
2024-03-06T13:37:55.115Z,8.55
2024-03-06T13:40:22.028Z,7.38
2024-03-06T13:42:48.971Z,8.10
2024-03-06T13:45:15.991Z,9.48
2024-03-06T13:47:43.736Z,10.85
2024-03-06T13:50:12.053Z,10.25
2024-03-06T13:52:39.338Z,11.10
2024-03-06T13:55:06.668Z,9.85
2024-03-06T13:57:37.846Z,10.32
2024-03-06T14:00:06.353Z,10.45
2024-03-06T14:02:40.934Z,9.20
2024-03-06T14:05:08.089Z,11.65
2024-03-06T14:07:35.435Z,10.88
2024-03-06T14:10:05.193Z,11.05
2024-03-06T14:12:33.446Z,10.70
2024-03-06T14:15:00.293Z,11.13
2024-03-06T14:17:27.244Z,10.63
2024-03-06T14:19:54.269Z,10.10
2024-03-06T14:22:20.977Z,9.15
2024-03-06T14:24:47.712Z,9.63
2024-03-06T14:27:17.387Z,10.52
2024-03-06T14:29:44.718Z,9.82
2024-03-06T14:32:11.862Z,7.78
2024-03-06T14:34:38.829Z,4.85
2024-03-06T14:37:05.547Z,3.15
2024-03-06T14:39:32.388Z,5.03
2024-03-06T14:41:59.160Z,4.82
2024-03-06T14:44:25.886Z,5.97
2024-03-06T14:46:52.944Z,8.38
2024-03-06T14:49:19.714Z,9.15
2024-03-06T14:51:46.622Z,8.20
2024-03-06T14:54:13.516Z,8.82
2024-03-06T14:56:40.285Z,9.00
2024-03-06T14:59:06.989Z,9.32
2024-03-06T15:01:34.344Z,9.35
2024-03-06T15:04:01.070Z,9.43
2024-03-06T15:06:27.888Z,10.38
2024-03-06T15:08:54.762Z,11.50
2024-03-06T15:11:24.419Z,9.52
2024-03-06T15:13:51.752Z,10.07
2024-03-06T15:16:19.632Z,10.25
2024-03-06T15:18:48.270Z,10.98
2024-03-06T15:21:15.461Z,10.50
2024-03-06T15:23:42.282Z,11.30
2024-03-06T15:26:09.037Z,11.20
2024-03-06T15:28:35.744Z,10.98
2024-03-06T15:31:05.148Z,11.55
2024-03-06T15:33:32.223Z,11.15
2024-03-06T15:36:01.251Z,11.32
2024-03-06T15:38:28.469Z,10.00
2024-03-06T15:40:55.211Z,9.98
2024-03-06T15:43:22.977Z,7.43
2024-03-06T15:45:49.684Z,8.80
2024-03-06T15:48:16.650Z,8.73
2024-03-06T15:50:44.385Z,8.90
2024-03-06T15:53:11.451Z,9.93
2024-03-06T15:55:38.199Z,10.73
2024-03-06T15:58:05.316Z,10.32
2024-03-06T16:00:32.543Z,11.00
2024-03-06T16:02:59.796Z,11.57
2024-03-06T16:05:27.715Z,11.40
2024-03-06T16:08:04.477Z,11.13
2024-03-06T16:10:32.425Z,11.20
2024-03-06T16:12:59.138Z,10.40
2024-03-06T16:15:25.881Z,10.55
2024-03-06T16:17:53.102Z,11.00
2024-03-06T16:20:21.437Z,11.15
2024-03-06T16:22:48.398Z,11.10
2024-03-06T16:25:15.268Z,11.57
2024-03-06T16:27:42.049Z,11.32
2024-03-06T16:30:10.064Z,11.48
2024-03-06T16:32:37.087Z,12.25
2024-03-06T16:35:05.285Z,13.25
2024-03-06T16:37:32.098Z,12.65
2024-03-06T16:39:58.868Z,12.18
2024-03-06T16:42:25.679Z,11.90
2024-03-06T16:44:52.485Z,12.27
2024-03-06T16:47:19.298Z,12.95
2024-03-06T16:49:46.195Z,12.13
2024-03-06T16:52:14.611Z,11.05
2024-03-06T16:54:42.239Z,12.30
2024-03-06T16:57:12.274Z,14.50
2024-03-06T16:59:39.664Z,12.23
2024-03-06T17:02:06.563Z,11.30
2024-03-06T17:04:33.521Z,9.73
2024-03-06T17:07:02.391Z,8.23
2024-03-06T17:09:29.375Z,7.28
2024-03-06T17:11:56.394Z,6.30
2024-03-06T17:14:23.260Z,5.78
2024-03-06T17:16:50.350Z,6.07
2024-03-06T17:19:17.369Z,6.65
2024-03-06T17:21:44.103Z,6.13
2024-03-06T17:24:11.308Z,5.90
2024-03-06T17:26:39.773Z,6.82
2024-03-06T17:29:08.322Z,6.90
2024-03-06T17:31:38.689Z,7.25
2024-03-06T17:34:07.217Z,8.65
2024-03-06T17:36:37.316Z,8.10
2024-03-06T17:39:05.611Z,8.00
2024-03-06T17:41:32.374Z,8.45
2024-03-06T17:43:59.105Z,9.05
2024-03-06T17:46:27.134Z,7.65
2024-03-06T17:48:53.844Z,7.18
2024-03-06T17:51:22.917Z,6.53
2024-03-06T17:53:49.760Z,6.43
2024-03-06T17:56:16.674Z,5.70
2024-03-06T17:58:43.432Z,6.68
2024-03-06T18:01:10.264Z,6.65
2024-03-06T18:03:38.228Z,5.85
2024-03-06T18:06:05.029Z,6.03
2024-03-06T18:08:31.951Z,5.68
2024-03-06T18:10:58.703Z,5.78
2024-03-06T18:13:25.734Z,6.05
2024-03-06T18:15:53.453Z,6.10
2024-03-06T18:18:20.741Z,6.82
2024-03-06T18:20:47.576Z,6.30
2024-03-06T18:23:14.394Z,4.60
2024-03-06T18:25:41.122Z,5.25
2024-03-06T18:28:07.898Z,5.45
2024-03-06T18:30:34.632Z,4.03
2024-03-06T18:33:03.105Z,4.32
2024-03-06T18:35:30.358Z,4.28
2024-03-06T18:37:59.955Z,4.18
2024-03-06T18:40:29.297Z,4.00
2024-03-06T18:42:56.589Z,4.45
2024-03-06T18:45:23.391Z,4.50
2024-03-06T18:47:50.691Z,4.40
2024-03-06T18:50:18.370Z,5.65
2024-03-06T18:52:46.861Z,5.63
2024-03-06T18:55:14.357Z,6.07
2024-03-06T18:57:41.537Z,5.13
2024-03-06T19:00:09.194Z,5.05
2024-03-06T19:02:36.288Z,6.65
2024-03-06T19:05:03.188Z,5.90
2024-03-06T19:07:30.312Z,6.68
2024-03-06T19:09:58.019Z,7.97
2024-03-06T19:12:25.172Z,6.50
2024-03-06T19:14:52.299Z,7.10
2024-03-06T19:17:19.628Z,7.13
2024-03-06T19:19:47.090Z,7.30
2024-03-06T19:22:16.836Z,7.05
2024-03-06T19:24:44.432Z,6.53
2024-03-06T19:27:11.437Z,6.80
2024-03-06T19:29:38.750Z,6.85
2024-03-06T19:32:06.074Z,8.02
2024-03-06T19:34:35.068Z,6.80
2024-03-06T19:37:02.411Z,6.85
2024-03-06T19:39:29.558Z,7.10
2024-03-06T19:41:57.747Z,7.70
2024-03-06T19:44:28.268Z,8.05
2024-03-06T19:46:55.818Z,7.05
2024-03-06T19:49:22.692Z,8.57
2024-03-06T19:51:49.511Z,8.30
2024-03-06T19:54:16.903Z,8.70
2024-03-06T19:56:44.456Z,7.32
2024-03-06T19:59:11.940Z,7.30
2024-03-06T20:01:39.714Z,7.25
2024-03-06T20:04:07.768Z,7.13
2024-03-06T20:06:35.696Z,7.28
2024-03-06T20:09:06.557Z,7.70
2024-03-06T20:11:35.543Z,6.63
2024-03-06T20:14:03.086Z,6.55
2024-03-06T20:16:30.671Z,7.10
2024-03-06T20:18:58.183Z,6.85
2024-03-06T20:21:25.487Z,6.55
2024-03-06T20:23:53.068Z,6.93
2024-03-06T20:26:22.132Z,6.65
2024-03-06T20:28:52.254Z,6.25
2024-03-06T20:31:19.353Z,6.13
2024-03-06T20:33:50.278Z,5.68
2024-03-06T20:36:19.026Z,5.53
2024-03-06T20:38:46.104Z,5.63
2024-03-06T20:41:14.159Z,5.43
2024-03-06T20:43:41.515Z,5.68
2024-03-06T20:46:09.282Z,5.60
2024-03-06T20:48:37.575Z,5.47
2024-03-06T20:51:06.688Z,7.93
2024-03-06T20:53:33.588Z,6.20
2024-03-06T20:56:00.392Z,5.97
2024-03-06T20:58:27.243Z,6.55
2024-03-06T21:00:56.759Z,7.38
2024-03-06T21:03:23.747Z,7.28
2024-03-06T21:05:52.006Z,6.45
2024-03-06T21:08:19.025Z,7.40
2024-03-06T21:10:45.975Z,6.47
2024-03-06T21:13:13.157Z,7.93
2024-03-06T21:15:40.323Z,6.68
2024-03-06T21:18:07.363Z,6.85
2024-03-06T21:20:35.006Z,7.43
2024-03-06T21:23:01.925Z,8.18
2024-03-06T21:25:28.739Z,7.55
2024-03-06T21:27:55.815Z,6.88
2024-03-06T21:30:23.294Z,7.85
2024-03-06T21:32:50.140Z,7.72
2024-03-06T21:35:17.192Z,7.70
2024-03-06T21:37:44.052Z,7.38
2024-03-06T21:40:14.699Z,7.93
2024-03-06T21:42:46.701Z,7.30
2024-03-06T21:45:13.878Z,9.02
2024-03-06T21:47:40.826Z,8.30
2024-03-06T21:50:08.124Z,8.23
2024-03-06T21:52:34.959Z,8.25
2024-03-06T21:55:02.840Z,8.57
2024-03-06T21:57:29.610Z,8.27
2024-03-06T21:59:57.341Z,8.35
2024-03-06T22:02:24.368Z,7.75
2024-03-06T22:04:51.136Z,7.93
2024-03-06T22:07:18.006Z,8.55
2024-03-06T22:09:47.305Z,7.70
2024-03-06T22:14:45.283Z,7.55
2024-03-06T22:17:12.525Z,9.20
2024-03-06T22:19:41.044Z,7.75
2024-03-06T22:22:08.110Z,8.40
2024-03-06T22:24:34.773Z,9.27
2024-03-06T22:27:02.142Z,8.43
2024-03-06T22:29:29.044Z,8.80
2024-03-06T22:31:55.743Z,10.05
2024-03-06T22:34:22.562Z,8.77
2024-03-06T22:36:49.302Z,8.90
2024-03-06T22:39:16.023Z,7.97
2024-03-06T22:41:42.946Z,9.60
2024-03-06T22:44:09.762Z,9.57
2024-03-06T22:46:47.182Z,8.52
2024-03-06T22:49:18.752Z,8.98
2024-03-06T22:51:45.445Z,9.23
2024-03-06T22:54:12.368Z,9.20
2024-03-06T22:56:40.832Z,9.15
2024-03-06T22:59:08.093Z,9.23
2024-03-06T23:01:35.008Z,8.80
2024-03-06T23:04:02.255Z,9.70
2024-03-06T23:06:28.924Z,9.60
2024-03-06T23:08:55.771Z,11.23
2024-03-06T23:11:23.043Z,10.25
2024-03-06T23:13:49.920Z,8.85
2024-03-06T23:16:16.684Z,8.98
2024-03-06T23:18:43.699Z,8.18
2024-03-06T23:21:11.002Z,9.32
2024-03-06T23:23:37.853Z,8.05
2024-03-06T23:26:04.935Z,8.43
2024-03-06T23:28:31.709Z,8.88
2024-03-06T23:30:59.364Z,8.38
2024-03-06T23:33:26.134Z,8.15
2024-03-06T23:35:54.370Z,7.93
2024-03-06T23:38:21.147Z,7.18
2024-03-06T23:40:47.910Z,6.78
2024-03-06T23:43:14.664Z,6.80
2024-03-06T23:45:41.406Z,5.75
2024-03-06T23:48:08.167Z,7.05
2024-03-06T23:50:35.157Z,6.40
2024-03-06T23:53:01.993Z,6.80
2024-03-06T23:55:29.976Z,6.10
2024-03-06T23:57:56.947Z,6.70
